Champion — WCZ7631 — position and weather

sailwx.info

Track history (hours):
 
Tides and Currents Weather Stations Pressure Air Temp Water Temp Dewpoint Dewpoint Depression Visibility Wind Speed Wind Dir Waves Ship Positions

Champion

Owner: MC CULLEY MARINE SERVICES INC, FORT PIERCE, FL. More information available from US FCC via Universal Licensing System and Coast Guard Vessel Documentation Center.

Last reported at 2016-Jul-16 06:33 UTC. Time now 2016-Jul-23 11:14 UTC.
Position N 27°06' W 080°06'.

Length 20 m; draft 1.7 m.

Type: Towing. MMSI: 367005250.

Date/timePositionNaut miles runAvg speedWind from/ knotsBaromVisibWave heightAir tempDewpointWater temp
2016-Jul-16 06:33N 27°06' W 080°06'15 7.3
2016-Jul-16 04:33N 26°52' W 080°01'25 8.4
2016-Jul-16 01:33N 26°26' W 080°01'8 8.0
2016-Jul-16 00:33N 26°18' W 080°02'8 7.6
2016-Jul-15 23:33N 26°11' W 080°04'6 5.7
2016-Jul-15 22:33N 26°06' W 080°06'2 1.8
2016-Jul-15 21:33N 26°04' W 080°07'0 0.0
2016-Jul-15 20:26N 26°04' W 080°07'0 0.0
2016-Jul-15 19:33N 26°04' W 080°07'0 0.0
2016-Jul-15 18:33N 26°04' W 080°07'0 0.0
2016-Jul-15 17:33N 26°04' W 080°07'0 0.0
2016-Jul-15 16:33N 26°04' W 080°07'0 0.0
2016-Jul-15 15:33N 26°04' W 080°07'0 0.0
2016-Jul-15 14:33N 26°04' W 080°07'0 0.0
2016-Jul-15 13:33N 26°04' W 080°07'0 0.0
2016-Jul-15 12:33N 26°04' W 080°07'0 0.0
2016-Jul-15 11:33N 26°04' W 080°07'0 0.0
2016-Jul-15 10:32N 26°04' W 080°07'0 0.0
2016-Jul-15 09:33N 26°04' W 080°07'0 0.0
2016-Jul-15 08:33N 26°04' W 080°07'0 0.0
2016-Jul-15 07:33N 26°04' W 080°07'0 0.0
2016-Jul-15 06:33N 26°04' W 080°07'0 0.0
2016-Jul-15 05:33N 26°04' W 080°07'0 0.0
2016-Jul-15 04:33N 26°04' W 080°07'0 0.0
2016-Jul-15 03:33N 26°04' W 080°07'0 0.0
2016-Jul-15 02:33N 26°04' W 080°07'0 0.0
2016-Jul-15 01:33N 26°04' W 080°07'0 0.0
2016-Jul-15 00:33N 26°04' W 080°07'0 0.2
2016-Jul-14 23:33N 26°04' W 080°07'2 2.4
2016-Jul-14 22:33N 26°01' W 080°07'5 5.1
2016-Jul-14 21:33N 25°56' W 080°08'2 2.1
2016-Jul-14 20:33N 25°54' W 080°08'7 0.2
2016-Jul-13 10:22N 25°47' W 080°07'2 2.3
2016-Jul-13 09:33N 25°49' W 080°06'5 5.5
2016-Jul-13 08:33N 25°54' W 080°06'5 5.5
2016-Jul-13 07:33N 25°60' W 080°06'6 5.6
2016-Jul-13 06:33N 26°05' W 080°05'6 5.7
2016-Jul-13 05:33N 26°11' W 080°05'5 5.1
2016-Jul-13 04:33N 26°16' W 080°04'5 4.9
2016-Jul-13 03:33N 26°21' W 080°03'30 4.2
2016-Jul-12 20:33N 26°50' W 080°01'4 4.2
2016-Jul-12 19:33N 26°55' W 080°03'4 4.4
2016-Jul-12 18:33N 26°59' W 080°04'5 5.0
2016-Jul-12 17:30N 27°04' W 080°06'  
Track history (hours):
 
Tides and Currents Weather Stations Pressure Air Temp Water Temp Dewpoint Dewpoint Depression Visibility Wind Speed Wind Dir Waves Ship Positions

Champion

Owner: MC CULLEY MARINE SERVICES INC, FORT PIERCE, FL. More information available from US FCC via Universal Licensing System and Coast Guard Vessel Documentation Center.

Last reported at 2016-Jul-16 06:33 UTC. Time now 2016-Jul-23 11:14 UTC.
Position N 27°06' W 080°06'.

Length 20 m; draft 1.7 m.

Type: Towing. MMSI: 367005250.

Date/timePositionNaut miles runAvg speedWind from/ knotsBaromVisibWave heightAir tempDewpointWater temp
2016-Jul-16 06:33N 27°06' W 080°06'15 7.3
2016-Jul-16 04:33N 26°52' W 080°01'25 8.4
2016-Jul-16 01:33N 26°26' W 080°01'8 8.0
2016-Jul-16 00:33N 26°18' W 080°02'8 7.6
2016-Jul-15 23:33N 26°11' W 080°04'6 5.7
2016-Jul-15 22:33N 26°06' W 080°06'2 1.8
2016-Jul-15 21:33N 26°04' W 080°07'0 0.0
2016-Jul-15 20:26N 26°04' W 080°07'0 0.0
2016-Jul-15 19:33N 26°04' W 080°07'0 0.0
2016-Jul-15 18:33N 26°04' W 080°07'0 0.0
2016-Jul-15 17:33N 26°04' W 080°07'0 0.0
2016-Jul-15 16:33N 26°04' W 080°07'0 0.0
2016-Jul-15 15:33N 26°04' W 080°07'0 0.0
2016-Jul-15 14:33N 26°04' W 080°07'0 0.0
2016-Jul-15 13:33N 26°04' W 080°07'0 0.0
2016-Jul-15 12:33N 26°04' W 080°07'0 0.0
2016-Jul-15 11:33N 26°04' W 080°07'0 0.0
2016-Jul-15 10:32N 26°04' W 080°07'0 0.0
2016-Jul-15 09:33N 26°04' W 080°07'0 0.0
2016-Jul-15 08:33N 26°04' W 080°07'0 0.0
2016-Jul-15 07:33N 26°04' W 080°07'0 0.0
2016-Jul-15 06:33N 26°04' W 080°07'0 0.0
2016-Jul-15 05:33N 26°04' W 080°07'0 0.0
2016-Jul-15 04:33N 26°04' W 080°07'0 0.0
2016-Jul-15 03:33N 26°04' W 080°07'0 0.0
2016-Jul-15 02:33N 26°04' W 080°07'0 0.0
2016-Jul-15 01:33N 26°04' W 080°07'0 0.0
2016-Jul-15 00:33N 26°04' W 080°07'0 0.2
2016-Jul-14 23:33N 26°04' W 080°07'2 2.4
2016-Jul-14 22:33N 26°01' W 080°07'5 5.1
2016-Jul-14 21:33N 25°56' W 080°08'2 2.1
2016-Jul-14 20:33N 25°54' W 080°08'7 0.2
2016-Jul-13 10:22N 25°47' W 080°07'2 2.3
2016-Jul-13 09:33N 25°49' W 080°06'5 5.5
2016-Jul-13 08:33N 25°54' W 080°06'5 5.5
2016-Jul-13 07:33N 25°60' W 080°06'6 5.6
2016-Jul-13 06:33N 26°05' W 080°05'6 5.7
2016-Jul-13 05:33N 26°11' W 080°05'5 5.1
2016-Jul-13 04:33N 26°16' W 080°04'5 4.9
2016-Jul-13 03:33N 26°21' W 080°03'30 4.2
2016-Jul-12 20:33N 26°50' W 080°01'4 4.2
2016-Jul-12 19:33N 26°55' W 080°03'4 4.4
2016-Jul-12 18:33N 26°59' W 080°04'5 5.0
2016-Jul-12 17:30N 27°04' W 080°06'  

Dump ship's entire track history